sensor_id;sensor_type;location;lat;lon;timestamp;temperature;humidity
28530;DHT22;15737;49.760;6.632;2024-03-08T00:01:10;3.70;99.90
28530;DHT22;15737;49.760;6.632;2024-03-08T00:03:36;3.60;99.90
28530;DHT22;15737;49.760;6.632;2024-03-08T00:06:21;3.60;99.90
28530;DHT22;15737;49.760;6.632;2024-03-08T00:08:47;3.50;99.90
28530;DHT22;15737;49.760;6.632;2024-03-08T00:11:12;3.40;99.90
28530;DHT22;15737;49.760;6.632;2024-03-08T00:13:38;3.40;99.90
28530;DHT22;15737;49.760;6.632;2024-03-08T00:16:03;3.50;99.90
28530;DHT22;15737;49.760;6.632;2024-03-08T00:18:29;3.50;99.90
28530;DHT22;15737;49.760;6.632;2024-03-08T00:20:55;3.50;99.90
28530;DHT22;15737;49.760;6.632;2024-03-08T00:23:21;3.40;99.90
28530;DHT22;15737;49.760;6.632;2024-03-08T00:25:47;3.30;99.90
28530;DHT22;15737;49.760;6.632;2024-03-08T00:28:12;3.30;99.90
28530;DHT22;15737;49.760;6.632;2024-03-08T00:33:15;3.30;99.90
28530;DHT22;15737;49.760;6.632;2024-03-08T00:35:40;3.40;99.90
28530;DHT22;15737;49.760;6.632;2024-03-08T00:38:06;3.40;99.90
28530;DHT22;15737;49.760;6.632;2024-03-08T00:40:32;3.40;99.90
28530;DHT22;15737;49.760;6.632;2024-03-08T00:42:57;3.40;99.90
28530;DHT22;15737;49.760;6.632;2024-03-08T00:45:22;3.30;99.90
28530;DHT22;15737;49.760;6.632;2024-03-08T00:47:48;3.30;99.90
28530;DHT22;15737;49.760;6.632;2024-03-08T00:50:14;3.30;99.90
28530;DHT22;15737;49.760;6.632;2024-03-08T00:52:39;3.40;99.90
28530;DHT22;15737;49.760;6.632;2024-03-08T00:55:05;3.40;99.90
28530;DHT22;15737;49.760;6.632;2024-03-08T01:00:07;3.50;99.90
28530;DHT22;15737;49.760;6.632;2024-03-08T01:02:37;3.50;99.90
28530;DHT22;15737;49.760;6.632;2024-03-08T01:05:03;3.50;99.90
28530;DHT22;15737;49.760;6.632;2024-03-08T01:07:31;3.50;99.90
28530;DHT22;15737;49.760;6.632;2024-03-08T01:09:56;3.50;99.90
28530;DHT22;15737;49.760;6.632;2024-03-08T01:12:28;3.60;99.90
28530;DHT22;15737;49.760;6.632;2024-03-08T01:15:04;3.50;99.90
28530;DHT22;15737;49.760;6.632;2024-03-08T01:17:30;3.60;99.90
28530;DHT22;15737;49.760;6.632;2024-03-08T01:19:56;3.60;99.90
28530;DHT22;15737;49.760;6.632;2024-03-08T01:22:22;3.70;99.90
28530;DHT22;15737;49.760;6.632;2024-03-08T01:24:48;3.60;99.90
28530;DHT22;15737;49.760;6.632;2024-03-08T01:27:13;3.60;99.90
28530;DHT22;15737;49.760;6.632;2024-03-08T01:29:39;3.60;99.90
28530;DHT22;15737;49.760;6.632;2024-03-08T01:32:05;3.60;99.90
28530;DHT22;15737;49.760;6.632;2024-03-08T01:34:31;3.60;99.90
28530;DHT22;15737;49.760;6.632;2024-03-08T01:36:58;3.60;99.90
28530;DHT22;15737;49.760;6.632;2024-03-08T01:41:59;3.60;99.90
28530;DHT22;15737;49.760;6.632;2024-03-08T01:44:26;3.60;99.90
28530;DHT22;15737;49.760;6.632;2024-03-08T01:46:53;3.60;99.90
28530;DHT22;15737;49.760;6.632;2024-03-08T01:49:20;3.60;99.90
28530;DHT22;15737;49.760;6.632;2024-03-08T01:51:48;3.60;99.90
28530;DHT22;15737;49.760;6.632;2024-03-08T01:56:56;3.60;99.90
28530;DHT22;15737;49.760;6.632;2024-03-08T01:59:24;3.60;99.90
28530;DHT22;15737;49.760;6.632;2024-03-08T02:01:54;3.60;99.90
28530;DHT22;15737;49.760;6.632;2024-03-08T02:04:20;3.60;99.90
28530;DHT22;15737;49.760;6.632;2024-03-08T02:06:46;3.60;99.90
28530;DHT22;15737;49.760;6.632;2024-03-08T02:14:21;3.60;99.90
28530;DHT22;15737;49.760;6.632;2024-03-08T02:16:47;3.60;99.90
28530;DHT22;15737;49.760;6.632;2024-03-08T02:19:13;3.60;99.90
28530;DHT22;15737;49.760;6.632;2024-03-08T02:21:39;3.60;99.90
28530;DHT22;15737;49.760;6.632;2024-03-08T02:24:05;3.60;99.90
28530;DHT22;15737;49.760;6.632;2024-03-08T02:26:48;3.60;99.90
28530;DHT22;15737;49.760;6.632;2024-03-08T02:29:14;3.50;99.90
28530;DHT22;15737;49.760;6.632;2024-03-08T02:31:40;3.60;99.90
28530;DHT22;15737;49.760;6.632;2024-03-08T02:34:05;3.60;99.90
28530;DHT22;15737;49.760;6.632;2024-03-08T02:36:31;3.60;99.90
28530;DHT22;15737;49.760;6.632;2024-03-08T02:39:02;3.60;99.90
28530;DHT22;15737;49.760;6.632;2024-03-08T02:41:44;3.60;99.90
28530;DHT22;15737;49.760;6.632;2024-03-08T02:44:10;3.60;99.90
28530;DHT22;15737;49.760;6.632;2024-03-08T02:46:40;3.50;99.90
28530;DHT22;15737;49.760;6.632;2024-03-08T02:49:06;3.60;99.90
28530;DHT22;15737;49.760;6.632;2024-03-08T02:51:33;3.60;99.90
28530;DHT22;15737;49.760;6.632;2024-03-08T02:59:10;3.50;99.90
28530;DHT22;15737;49.760;6.632;2024-03-08T03:01:36;3.50;99.90
28530;DHT22;15737;49.760;6.632;2024-03-08T03:04:01;3.60;99.90
28530;DHT22;15737;49.760;6.632;2024-03-08T03:06:28;3.60;99.90
28530;DHT22;15737;49.760;6.632;2024-03-08T03:08:53;3.60;99.90
28530;DHT22;15737;49.760;6.632;2024-03-08T03:11:19;3.50;99.90
28530;DHT22;15737;49.760;6.632;2024-03-08T03:13:44;3.50;99.90
28530;DHT22;15737;49.760;6.632;2024-03-08T03:16:17;3.50;99.90
28530;DHT22;15737;49.760;6.632;2024-03-08T03:18:44;3.40;99.90
28530;DHT22;15737;49.760;6.632;2024-03-08T03:23:40;3.40;99.90
28530;DHT22;15737;49.760;6.632;2024-03-08T03:26:08;3.40;99.90
28530;DHT22;15737;49.760;6.632;2024-03-08T03:28:34;3.30;99.90
28530;DHT22;15737;49.760;6.632;2024-03-08T03:30:59;3.40;99.90
28530;DHT22;15737;49.760;6.632;2024-03-08T03:33:25;3.40;99.90
28530;DHT22;15737;49.760;6.632;2024-03-08T03:38:32;3.30;99.90
28530;DHT22;15737;49.760;6.632;2024-03-08T03:40:59;3.30;99.90
28530;DHT22;15737;49.760;6.632;2024-03-08T03:43:31;3.30;99.90
28530;DHT22;15737;49.760;6.632;2024-03-08T03:45:57;3.20;99.90
28530;DHT22;15737;49.760;6.632;2024-03-08T03:48:23;3.20;99.90
28530;DHT22;15737;49.760;6.632;2024-03-08T03:53:30;3.20;99.90
28530;DHT22;15737;49.760;6.632;2024-03-08T03:55:55;3.20;99.90
28530;DHT22;15737;49.760;6.632;2024-03-08T03:58:21;3.10;99.90
28530;DHT22;15737;49.760;6.632;2024-03-08T04:00:48;3.10;99.90
28530;DHT22;15737;49.760;6.632;2024-03-08T04:03:14;3.10;99.90
28530;DHT22;15737;49.760;6.632;2024-03-08T04:05:39;3.10;99.90
28530;DHT22;15737;49.760;6.632;2024-03-08T04:08:05;3.10;99.90
28530;DHT22;15737;49.760;6.632;2024-03-08T04:10:31;3.10;99.90
28530;DHT22;15737;49.760;6.632;2024-03-08T04:12:57;3.10;99.90
28530;DHT22;15737;49.760;6.632;2024-03-08T04:15:22;3.10;99.90
28530;DHT22;15737;49.760;6.632;2024-03-08T04:22:55;3.00;99.90
28530;DHT22;15737;49.760;6.632;2024-03-08T04:25:21;3.00;99.90
28530;DHT22;15737;49.760;6.632;2024-03-08T04:27:47;3.00;99.90
28530;DHT22;15737;49.760;6.632;2024-03-08T04:30:14;3.00;99.90
28530;DHT22;15737;49.760;6.632;2024-03-08T04:35:21;3.00;99.90
28530;DHT22;15737;49.760;6.632;2024-03-08T04:37:46;2.90;99.90
28530;DHT22;15737;49.760;6.632;2024-03-08T04:40:12;2.90;99.90
28530;DHT22;15737;49.760;6.632;2024-03-08T04:42:38;2.90;99.90
28530;DHT22;15737;49.760;6.632;2024-03-08T04:45:05;2.80;99.90
28530;DHT22;15737;49.760;6.632;2024-03-08T04:47:30;2.80;99.90
28530;DHT22;15737;49.760;6.632;2024-03-08T04:49:56;2.80;99.90
28530;DHT22;15737;49.760;6.632;2024-03-08T04:52:22;2.80;99.90
28530;DHT22;15737;49.760;6.632;2024-03-08T04:54:48;2.80;99.90
28530;DHT22;15737;49.760;6.632;2024-03-08T04:57:13;2.70;99.90
28530;DHT22;15737;49.760;6.632;2024-03-08T05:04:44;2.60;99.90
28530;DHT22;15737;49.760;6.632;2024-03-08T05:07:10;2.60;99.90
28530;DHT22;15737;49.760;6.632;2024-03-08T05:09:37;2.60;99.90
28530;DHT22;15737;49.760;6.632;2024-03-08T05:12:03;2.50;99.90
28530;DHT22;15737;49.760;6.632;2024-03-08T05:14:34;2.50;99.90
28530;DHT22;15737;49.760;6.632;2024-03-08T05:19:41;2.50;99.90
28530;DHT22;15737;49.760;6.632;2024-03-08T05:22:06;2.50;99.90
28530;DHT22;15737;49.760;6.632;2024-03-08T05:24:32;2.50;99.90
28530;DHT22;15737;49.760;6.632;2024-03-08T05:26:58;2.50;99.90
28530;DHT22;15737;49.760;6.632;2024-03-08T05:29:29;2.50;99.90
28530;DHT22;15737;49.760;6.632;2024-03-08T05:34:38;2.40;99.90
28530;DHT22;15737;49.760;6.632;2024-03-08T05:37:03;2.40;99.90
28530;DHT22;15737;49.760;6.632;2024-03-08T05:39:29;2.50;99.90
28530;DHT22;15737;49.760;6.632;2024-03-08T05:41:55;2.40;99.90
28530;DHT22;15737;49.760;6.632;2024-03-08T05:44:21;2.30;99.90
28530;DHT22;15737;49.760;6.632;2024-03-08T05:46:47;2.30;99.90
28530;DHT22;15737;49.760;6.632;2024-03-08T05:49:12;2.30;99.90
28530;DHT22;15737;49.760;6.632;2024-03-08T05:51:40;2.20;99.90
28530;DHT22;15737;49.760;6.632;2024-03-08T05:54:07;2.20;99.90
28530;DHT22;15737;49.760;6.632;2024-03-08T05:59:05;2.30;99.90
28530;DHT22;15737;49.760;6.632;2024-03-08T06:01:32;2.30;99.90
28530;DHT22;15737;49.760;6.632;2024-03-08T06:04:01;2.30;99.90
28530;DHT22;15737;49.760;6.632;2024-03-08T06:06:28;2.40;99.90
28530;DHT22;15737;49.760;6.632;2024-03-08T06:08:54;2.30;99.90
28530;DHT22;15737;49.760;6.632;2024-03-08T06:14:00;2.40;99.90
28530;DHT22;15737;49.760;6.632;2024-03-08T06:16:26;2.50;99.90
28530;DHT22;15737;49.760;6.632;2024-03-08T06:18:57;2.80;99.90
28530;DHT22;15737;49.760;6.632;2024-03-08T06:21:24;3.40;99.90
28530;DHT22;15737;49.760;6.632;2024-03-08T06:23:52;4.00;99.90
28530;DHT22;15737;49.760;6.632;2024-03-08T06:28:58;5.40;99.90
28530;DHT22;15737;49.760;6.632;2024-03-08T06:31:24;5.90;99.90
28530;DHT22;15737;49.760;6.632;2024-03-08T06:33:49;6.20;99.90
28530;DHT22;15737;49.760;6.632;2024-03-08T06:36:18;6.70;99.90
28530;DHT22;15737;49.760;6.632;2024-03-08T06:38:45;7.30;99.90
28530;DHT22;15737;49.760;6.632;2024-03-08T06:43:51;8.20;99.90
28530;DHT22;15737;49.760;6.632;2024-03-08T06:46:17;8.70;99.90
28530;DHT22;15737;49.760;6.632;2024-03-08T06:48:43;9.30;99.90
28530;DHT22;15737;49.760;6.632;2024-03-08T06:51:11;9.30;99.90
28530;DHT22;15737;49.760;6.632;2024-03-08T06:56:05;9.90;99.90
28530;DHT22;15737;49.760;6.632;2024-03-08T06:58:49;10.20;99.80
28530;DHT22;15737;49.760;6.632;2024-03-08T07:01:14;10.60;99.00
28530;DHT22;15737;49.760;6.632;2024-03-08T07:03:43;11.20;98.10
28530;DHT22;15737;49.760;6.632;2024-03-08T07:06:10;11.80;96.60
28530;DHT22;15737;49.760;6.632;2024-03-08T07:08:36;12.30;95.90
28530;DHT22;15737;49.760;6.632;2024-03-08T07:11:02;13.00;94.60
28530;DHT22;15737;49.760;6.632;2024-03-08T07:13:28;13.30;93.00
28530;DHT22;15737;49.760;6.632;2024-03-08T07:15:54;13.40;92.60
28530;DHT22;15737;49.760;6.632;2024-03-08T07:18:20;13.50;91.70
28530;DHT22;15737;49.760;6.632;2024-03-08T07:20:47;13.90;91.00
28530;DHT22;15737;49.760;6.632;2024-03-08T07:25:48;15.50;86.10
28530;DHT22;15737;49.760;6.632;2024-03-08T07:28:14;15.50;84.70
28530;DHT22;15737;49.760;6.632;2024-03-08T07:30:39;15.90;82.30
28530;DHT22;15737;49.760;6.632;2024-03-08T07:33:11;15.70;80.80
28530;DHT22;15737;49.760;6.632;2024-03-08T07:35:38;15.50;80.40
28530;DHT22;15737;49.760;6.632;2024-03-08T07:40:41;16.60;77.60
28530;DHT22;15737;49.760;6.632;2024-03-08T07:43:10;16.80;75.40
28530;DHT22;15737;49.760;6.632;2024-03-08T07:45:37;16.90;74.80
28530;DHT22;15737;49.760;6.632;2024-03-08T07:48:03;17.60;72.70
28530;DHT22;15737;49.760;6.632;2024-03-08T07:50:29;17.90;70.30
28530;DHT22;15737;49.760;6.632;2024-03-08T07:52:54;17.50;69.60
28530;DHT22;15737;49.760;6.632;2024-03-08T07:55:20;17.30;70.20
28530;DHT22;15737;49.760;6.632;2024-03-08T07:57:45;17.50;69.00
28530;DHT22;15737;49.760;6.632;2024-03-08T08:00:13;17.90;68.50
28530;DHT22;15737;49.760;6.632;2024-03-08T08:02:43;18.60;66.90
28530;DHT22;15737;49.760;6.632;2024-03-08T08:07:39;19.20;64.80
28530;DHT22;15737;49.760;6.632;2024-03-08T08:10:09;19.70;62.80
28530;DHT22;15737;49.760;6.632;2024-03-08T08:12:40;19.20;62.40
28530;DHT22;15737;49.760;6.632;2024-03-08T08:15:07;18.90;63.00
28530;DHT22;15737;49.760;6.632;2024-03-08T08:17:33;19.30;61.30
28530;DHT22;15737;49.760;6.632;2024-03-08T08:22:32;19.80;60.40
28530;DHT22;15737;49.760;6.632;2024-03-08T08:24:58;20.40;59.30
28530;DHT22;15737;49.760;6.632;2024-03-08T08:27:23;20.50;59.00
28530;DHT22;15737;49.760;6.632;2024-03-08T08:29:51;21.30;58.00
28530;DHT22;15737;49.760;6.632;2024-03-08T08:32:17;20.90;57.40
28530;DHT22;15737;49.760;6.632;2024-03-08T08:34:44;20.40;57.20
28530;DHT22;15737;49.760;6.632;2024-03-08T08:37:09;19.90;57.40
28530;DHT22;15737;49.760;6.632;2024-03-08T08:39:35;20.20;57.50
28530;DHT22;15737;49.760;6.632;2024-03-08T08:42:00;21.20;56.60
28530;DHT22;15737;49.760;6.632;2024-03-08T08:44:28;21.90;55.40
28530;DHT22;15737;49.760;6.632;2024-03-08T08:46:53;22.10;55.20
28530;DHT22;15737;49.760;6.632;2024-03-08T08:49:19;22.10;55.50
28530;DHT22;15737;49.760;6.632;2024-03-08T08:51:51;21.90;54.50
28530;DHT22;15737;49.760;6.632;2024-03-08T08:54:17;21.30;54.80
28530;DHT22;15737;49.760;6.632;2024-03-08T08:56:43;20.80;55.30
28530;DHT22;15737;49.760;6.632;2024-03-08T08:59:13;21.00;55.40
28530;DHT22;15737;49.760;6.632;2024-03-08T09:01:49;21.60;54.90
28530;DHT22;15737;49.760;6.632;2024-03-08T09:04:17;22.60;54.20
28530;DHT22;15737;49.760;6.632;2024-03-08T09:06:42;23.00;53.00
28530;DHT22;15737;49.760;6.632;2024-03-08T09:09:09;22.70;53.20
28530;DHT22;15737;49.760;6.632;2024-03-08T09:11:36;23.10;53.30
28530;DHT22;15737;49.760;6.632;2024-03-08T09:14:03;23.00;52.20
28530;DHT22;15737;49.760;6.632;2024-03-08T09:16:30;22.30;53.20
28530;DHT22;15737;49.760;6.632;2024-03-08T09:18:56;22.70;53.20
28530;DHT22;15737;49.760;6.632;2024-03-08T09:21:22;23.20;52.30
28530;DHT22;15737;49.760;6.632;2024-03-08T09:23:48;23.20;52.30
28530;DHT22;15737;49.760;6.632;2024-03-08T09:26:13;23.30;51.70
28530;DHT22;15737;49.760;6.632;2024-03-08T09:31:17;23.10;51.90
28530;DHT22;15737;49.760;6.632;2024-03-08T09:33:42;22.40;52.30
28530;DHT22;15737;49.760;6.632;2024-03-08T09:36:08;21.80;51.80
28530;DHT22;15737;49.760;6.632;2024-03-08T09:38:34;21.20;52.50
28530;DHT22;15737;49.760;6.632;2024-03-08T09:41:02;21.40;52.40
28530;DHT22;15737;49.760;6.632;2024-03-08T09:43:29;20.90;52.20
28530;DHT22;15737;49.760;6.632;2024-03-08T09:45:57;21.20;52.50
28530;DHT22;15737;49.760;6.632;2024-03-08T09:48:23;21.90;52.10
28530;DHT22;15737;49.760;6.632;2024-03-08T09:50:48;22.40;51.20
28530;DHT22;15737;49.760;6.632;2024-03-08T09:53:15;22.30;51.10
28530;DHT22;15737;49.760;6.632;2024-03-08T09:58:15;20.60;51.80
28530;DHT22;15737;49.760;6.632;2024-03-08T10:01:00;19.40;52.60
28530;DHT22;15737;49.760;6.632;2024-03-08T10:03:30;19.50;52.90
28530;DHT22;15737;49.760;6.632;2024-03-08T10:05:59;19.40;53.10
28530;DHT22;15737;49.760;6.632;2024-03-08T10:08:27;18.70;53.10
28530;DHT22;15737;49.760;6.632;2024-03-08T10:10:55;18.20;53.70
28530;DHT22;15737;49.760;6.632;2024-03-08T10:13:20;18.60;54.30
28530;DHT22;15737;49.760;6.632;2024-03-08T10:15:46;18.60;53.70
28530;DHT22;15737;49.760;6.632;2024-03-08T10:18:11;18.60;53.60
28530;DHT22;15737;49.760;6.632;2024-03-08T10:20:37;18.50;54.50
28530;DHT22;15737;49.760;6.632;2024-03-08T10:23:03;18.90;53.60
28530;DHT22;15737;49.760;6.632;2024-03-08T10:28:06;19.30;54.40
28530;DHT22;15737;49.760;6.632;2024-03-08T10:30:31;20.50;53.10
28530;DHT22;15737;49.760;6.632;2024-03-08T10:32:57;20.60;52.40
28530;DHT22;15737;49.760;6.632;2024-03-08T10:35:24;20.90;52.70
28530;DHT22;15737;49.760;6.632;2024-03-08T10:37:50;20.40;51.80
28530;DHT22;15737;49.760;6.632;2024-03-08T10:43:00;20.00;53.60
28530;DHT22;15737;49.760;6.632;2024-03-08T10:45:37;20.50;53.50
28530;DHT22;15737;49.760;6.632;2024-03-08T10:48:11;21.20;53.20
28530;DHT22;15737;49.760;6.632;2024-03-08T10:50:41;21.40;52.40
28530;DHT22;15737;49.760;6.632;2024-03-08T10:53:09;21.30;52.80
28530;DHT22;15737;49.760;6.632;2024-03-08T10:55:36;21.00;53.10
28530;DHT22;15737;49.760;6.632;2024-03-08T10:58:04;20.50;53.50
28530;DHT22;15737;49.760;6.632;2024-03-08T11:00:32;21.10;53.70
28530;DHT22;15737;49.760;6.632;2024-03-08T11:02:57;20.80;53.40
28530;DHT22;15737;49.760;6.632;2024-03-08T11:05:39;21.10;53.30
28530;DHT22;15737;49.760;6.632;2024-03-08T11:10:53;20.80;54.30
28530;DHT22;15737;49.760;6.632;2024-03-08T11:15:56;21.90;52.80
28530;DHT22;15737;49.760;6.632;2024-03-08T11:18:22;21.10;53.30
28530;DHT22;15737;49.760;6.632;2024-03-08T11:20:48;20.60;54.00
28530;DHT22;15737;49.760;6.632;2024-03-08T11:23:22;19.80;54.00
28530;DHT22;15737;49.760;6.632;2024-03-08T11:25:48;19.60;55.50
28530;DHT22;15737;49.760;6.632;2024-03-08T11:33:27;21.00;53.60
28530;DHT22;15737;49.760;6.632;2024-03-08T11:36:11;21.00;53.10
28530;DHT22;15737;49.760;6.632;2024-03-08T11:38:42;20.10;53.50
28530;DHT22;15737;49.760;6.632;2024-03-08T11:41:14;20.00;54.30
28530;DHT22;15737;49.760;6.632;2024-03-08T11:43:40;19.60;54.90
28530;DHT22;15737;49.760;6.632;2024-03-08T11:48:48;20.50;54.40
28530;DHT22;15737;49.760;6.632;2024-03-08T11:51:15;20.00;54.20
28530;DHT22;15737;49.760;6.632;2024-03-08T11:53:41;20.00;54.30
28530;DHT22;15737;49.760;6.632;2024-03-08T11:56:11;20.60;54.50
28530;DHT22;15737;49.760;6.632;2024-03-08T11:58:37;21.40;54.10
28530;DHT22;15737;49.760;6.632;2024-03-08T12:03:55;20.70;53.50
28530;DHT22;15737;49.760;6.632;2024-03-08T12:06:24;19.90;54.00
28530;DHT22;15737;49.760;6.632;2024-03-08T12:08:51;19.00;54.70
28530;DHT22;15737;49.760;6.632;2024-03-08T12:11:20;19.20;55.50
28530;DHT22;15737;49.760;6.632;2024-03-08T12:13:49;19.20;55.30
28530;DHT22;15737;49.760;6.632;2024-03-08T12:16:18;19.20;55.30
28530;DHT22;15737;49.760;6.632;2024-03-08T12:18:44;19.10;55.40
28530;DHT22;15737;49.760;6.632;2024-03-08T12:21:11;18.70;55.30
28530;DHT22;15737;49.760;6.632;2024-03-08T12:23:39;18.30;55.90
28530;DHT22;15737;49.760;6.632;2024-03-08T12:26:15;18.30;56.10
28530;DHT22;15737;49.760;6.632;2024-03-08T12:28:42;18.10;55.70
28530;DHT22;15737;49.760;6.632;2024-03-08T12:33:52;19.10;56.10
28530;DHT22;15737;49.760;6.632;2024-03-08T12:36:20;19.50;55.70
28530;DHT22;15737;49.760;6.632;2024-03-08T12:38:46;19.20;55.20
28530;DHT22;15737;49.760;6.632;2024-03-08T12:41:16;19.20;55.40
28530;DHT22;15737;49.760;6.632;2024-03-08T12:43:43;18.80;55.40
28530;DHT22;15737;49.760;6.632;2024-03-08T12:46:16;18.30;55.60
28530;DHT22;15737;49.760;6.632;2024-03-08T12:48:45;17.60;56.40
28530;DHT22;15737;49.760;6.632;2024-03-08T12:51:13;17.70;56.70
28530;DHT22;15737;49.760;6.632;2024-03-08T12:53:38;17.80;56.70
28530;DHT22;15737;49.760;6.632;2024-03-08T12:56:06;17.40;57.30
28530;DHT22;15737;49.760;6.632;2024-03-08T12:58:34;17.40;57.40
28530;DHT22;15737;49.760;6.632;2024-03-08T13:03:34;18.10;56.70
28530;DHT22;15737;49.760;6.632;2024-03-08T13:06:02;18.10;57.80
28530;DHT22;15737;49.760;6.632;2024-03-08T13:08:28;18.90;56.80
28530;DHT22;15737;49.760;6.632;2024-03-08T13:10:55;19.30;56.30
28530;DHT22;15737;49.760;6.632;2024-03-08T13:13:20;19.10;56.00
28530;DHT22;15737;49.760;6.632;2024-03-08T13:15:49;18.60;56.60
28530;DHT22;15737;49.760;6.632;2024-03-08T13:18:15;18.00;56.50
28530;DHT22;15737;49.760;6.632;2024-03-08T13:20:41;17.40;57.70
28530;DHT22;15737;49.760;6.632;2024-03-08T13:23:09;17.50;58.00
28530;DHT22;15737;49.760;6.632;2024-03-08T13:25:34;17.80;57.70
28530;DHT22;15737;49.760;6.632;2024-03-08T13:28:01;17.50;57.80
28530;DHT22;15737;49.760;6.632;2024-03-08T13:30:27;17.40;58.00
28530;DHT22;15737;49.760;6.632;2024-03-08T13:32:53;17.40;57.60
28530;DHT22;15737;49.760;6.632;2024-03-08T13:35:19;17.50;57.90
28530;DHT22;15737;49.760;6.632;2024-03-08T13:37:50;17.80;57.80
28530;DHT22;15737;49.760;6.632;2024-03-08T13:40:16;17.80;57.60
28530;DHT22;15737;49.760;6.632;2024-03-08T13:47:56;17.90;58.20
28530;DHT22;15737;49.760;6.632;2024-03-08T13:50:22;18.00;57.80
28530;DHT22;15737;49.760;6.632;2024-03-08T13:52:49;17.90;57.90
28530;DHT22;15737;49.760;6.632;2024-03-08T13:55:19;18.10;58.10
28530;DHT22;15737;49.760;6.632;2024-03-08T14:00:19;18.50;57.90
28530;DHT22;15737;49.760;6.632;2024-03-08T14:02:48;18.20;57.20
28530;DHT22;15737;49.760;6.632;2024-03-08T14:05:14;17.50;58.20
28530;DHT22;15737;49.760;6.632;2024-03-08T14:07:41;17.30;58.70
28530;DHT22;15737;49.760;6.632;2024-03-08T14:10:07;17.40;58.70
28530;DHT22;15737;49.760;6.632;2024-03-08T14:20:22;17.90;58.30
28530;DHT22;15737;49.760;6.632;2024-03-08T14:22:53;17.60;58.60
28530;DHT22;15737;49.760;6.632;2024-03-08T14:25:20;17.30;58.70
28530;DHT22;15737;49.760;6.632;2024-03-08T14:27:52;17.00;58.60
28530;DHT22;15737;49.760;6.632;2024-03-08T14:30:24;16.70;58.60
28530;DHT22;15737;49.760;6.632;2024-03-08T14:35:41;16.50;59.10
28530;DHT22;15737;49.760;6.632;2024-03-08T14:38:07;16.60;59.30
28530;DHT22;15737;49.760;6.632;2024-03-08T14:40:39;16.60;59.10
28530;DHT22;15737;49.760;6.632;2024-03-08T14:43:05;16.30;59.10
28530;DHT22;15737;49.760;6.632;2024-03-08T14:48:09;15.80;59.80
28530;DHT22;15737;49.760;6.632;2024-03-08T14:50:38;15.60;60.00
28530;DHT22;15737;49.760;6.632;2024-03-08T14:53:04;15.50;59.70
28530;DHT22;15737;49.760;6.632;2024-03-08T14:55:31;15.30;59.80
28530;DHT22;15737;49.760;6.632;2024-03-08T14:57:57;15.10;60.20
28530;DHT22;15737;49.760;6.632;2024-03-08T15:03:05;15.20;60.90
28530;DHT22;15737;49.760;6.632;2024-03-08T15:05:35;15.50;60.70
28530;DHT22;15737;49.760;6.632;2024-03-08T15:08:06;15.30;60.40
28530;DHT22;15737;49.760;6.632;2024-03-08T15:10:35;15.00;60.50
28530;DHT22;15737;49.760;6.632;2024-03-08T15:13:00;15.00;61.00
28530;DHT22;15737;49.760;6.632;2024-03-08T15:18:06;14.70;61.30
28530;DHT22;15737;49.760;6.632;2024-03-08T15:20:33;14.60;61.60
28530;DHT22;15737;49.760;6.632;2024-03-08T15:23:00;14.70;61.40
28530;DHT22;15737;49.760;6.632;2024-03-08T15:25:25;14.60;61.40
28530;DHT22;15737;49.760;6.632;2024-03-08T15:27:54;14.40;61.40
28530;DHT22;15737;49.760;6.632;2024-03-08T15:33:00;14.00;61.80
28530;DHT22;15737;49.760;6.632;2024-03-08T15:35:28;13.80;62.20
28530;DHT22;15737;49.760;6.632;2024-03-08T15:37:54;13.70;62.40
28530;DHT22;15737;49.760;6.632;2024-03-08T15:40:20;13.60;63.00
28530;DHT22;15737;49.760;6.632;2024-03-08T15:50:24;13.20;64.50
28530;DHT22;15737;49.760;6.632;2024-03-08T15:52:50;13.10;64.80
28530;DHT22;15737;49.760;6.632;2024-03-08T15:55:18;13.10;65.10
28530;DHT22;15737;49.760;6.632;2024-03-08T15:57:52;13.10;64.90
28530;DHT22;15737;49.760;6.632;2024-03-08T16:02:54;12.70;65.30
28530;DHT22;15737;49.760;6.632;2024-03-08T16:05:20;12.70;65.90
28530;DHT22;15737;49.760;6.632;2024-03-08T16:07:47;12.60;65.80
28530;DHT22;15737;49.760;6.632;2024-03-08T16:10:13;12.40;65.80
28530;DHT22;15737;49.760;6.632;2024-03-08T16:12:38;12.10;65.90
28530;DHT22;15737;49.760;6.632;2024-03-08T16:15:07;12.00;66.70
28530;DHT22;15737;49.760;6.632;2024-03-08T16:20:51;11.80;67.00
28530;DHT22;15737;49.760;6.632;2024-03-08T16:23:17;11.60;67.40
28530;DHT22;15737;49.760;6.632;2024-03-08T16:25:46;11.40;67.80
28530;DHT22;15737;49.760;6.632;2024-03-08T16:28:13;11.30;68.30
28530;DHT22;15737;49.760;6.632;2024-03-08T16:30:43;11.20;68.70
28530;DHT22;15737;49.760;6.632;2024-03-08T16:35:50;11.00;68.80
28530;DHT22;15737;49.760;6.632;2024-03-08T16:38:17;10.80;69.60
28530;DHT22;15737;49.760;6.632;2024-03-08T16:40:51;10.70;70.20
28530;DHT22;15737;49.760;6.632;2024-03-08T16:43:17;10.50;70.70
28530;DHT22;15737;49.760;6.632;2024-03-08T16:45:47;10.30;71.00
28530;DHT22;15737;49.760;6.632;2024-03-08T16:50:49;10.10;71.90
28530;DHT22;15737;49.760;6.632;2024-03-08T16:53:15;10.10;73.10
28530;DHT22;15737;49.760;6.632;2024-03-08T16:55:41;9.90;73.90
28530;DHT22;15737;49.760;6.632;2024-03-08T16:58:06;9.80;74.30
28530;DHT22;15737;49.760;6.632;2024-03-08T17:00:35;9.70;74.80
28530;DHT22;15737;49.760;6.632;2024-03-08T17:05:39;9.60;75.40
28530;DHT22;15737;49.760;6.632;2024-03-08T17:08:10;9.50;75.70
28530;DHT22;15737;49.760;6.632;2024-03-08T17:10:36;9.40;76.40
28530;DHT22;15737;49.760;6.632;2024-03-08T17:13:03;9.30;76.90
28530;DHT22;15737;49.760;6.632;2024-03-08T17:15:31;9.20;77.20
28530;DHT22;15737;49.760;6.632;2024-03-08T17:23:11;9.00;77.70
28530;DHT22;15737;49.760;6.632;2024-03-08T17:25:38;9.00;78.00
28530;DHT22;15737;49.760;6.632;2024-03-08T17:28:05;8.90;78.20
28530;DHT22;15737;49.760;6.632;2024-03-08T17:30:32;8.80;78.40
28530;DHT22;15737;49.760;6.632;2024-03-08T17:35:33;8.60;79.20
28530;DHT22;15737;49.760;6.632;2024-03-08T17:38:00;8.60;79.40
28530;DHT22;15737;49.760;6.632;2024-03-08T17:40:28;8.50;79.70
28530;DHT22;15737;49.760;6.632;2024-03-08T17:42:55;8.40;80.70
28530;DHT22;15737;49.760;6.632;2024-03-08T17:45:24;8.40;80.20
28530;DHT22;15737;49.760;6.632;2024-03-08T17:50:32;8.30;80.50
28530;DHT22;15737;49.760;6.632;2024-03-08T17:52:57;8.30;80.80
28530;DHT22;15737;49.760;6.632;2024-03-08T17:55:24;8.30;81.00
28530;DHT22;15737;49.760;6.632;2024-03-08T17:57:51;8.20;81.40
28530;DHT22;15737;49.760;6.632;2024-03-08T18:00:21;8.10;81.70
28530;DHT22;15737;49.760;6.632;2024-03-08T18:05:29;8.00;81.90
28530;DHT22;15737;49.760;6.632;2024-03-08T18:07:58;8.00;82.20
28530;DHT22;15737;49.760;6.632;2024-03-08T18:10:25;8.00;82.10
28530;DHT22;15737;49.760;6.632;2024-03-08T18:12:57;8.00;82.20
28530;DHT22;15737;49.760;6.632;2024-03-08T18:15:29;8.00;82.40
28530;DHT22;15737;49.760;6.632;2024-03-08T18:20:28;7.90;83.00
28530;DHT22;15737;49.760;6.632;2024-03-08T18:22:58;7.90;83.00
28530;DHT22;15737;49.760;6.632;2024-03-08T18:25:24;7.80;83.00